METAR AND TAF INFORMATION
METAR FOR KRNT
ADDS - METARS form results

(0643 UTC 27 February 2020)
Data provider http://aviationweather.gov/metar/data/
 
METAR text: KRNT 270553Z AUTO 15003KT 10SM OVC100 06/04 A3050 RMK AO2 SLP334 T00610039 10111 20061 56005
Conditions at: KRNT (RENTON , WA, US) observed 0553 UTC 27 February 2020
Temperature: 6.1°C (43°F)
Dewpoint: 3.9°C (39°F) [RH = 86%]
Pressure (altimeter): 30.50 inches Hg (1032.9 mb)
[Sea-level pressure: 1033.4 mb]
Winds: from the SSE (150 degrees) at 3 MPH (3 knots; 1.5 m/s)
Visibility: 10 or more miles (16+ km)
Ceiling: 10000 feet AGL
Clouds: overcast cloud deck at 10000 feet AGL
Weather: automated observation with no human augmentation;
there may or may not be significant weather present at this time

 AIRPORT MAP

 RUNWAY INFORMATION
Runway 16 Runway length 5382 ft Runway width 200 ft
Runway elevation 24 ft Runway displaced threshold 300 ft Runway heading 174
Runway 34 Runway length 5382 ft Runway width 200 ft
Runway elevation 32 ft Runway displaced threshold 340 ft Runway heading 354

 AIRPORT FREQUENCIES
Type A/D Name SEATTLE AP Frequency 119.2 MHZ
Type ATIS Name ATIS Frequency 126.95 MHZ
Type CTAF Name CTAF Frequency 124.7 MHZ
Type GND Name GND Frequency 121.6 MHZ
Type TWR Name TWR Frequency 124.7 MHZ
Type UNIC Name UNICOM Frequency 122.85 MHZ

 AIRPORT NEAR NAVIGATION AIDS
Type NDB Name Renton Frequency 353 KHZ



Powered by Virtual Airlines Manager [v2.6.2]

Impressum | Datenschutz